METAR AND TAF INFORMATION
METAR FOR LFML
ADDS - METARS form results

(1211 UTC 17 June 2019)
Data provider http://aviationweather.gov/metar/data/
 
METAR text: LFML 171200Z AUTO 27006KT CAVOK 27/16 Q1015 NOSIG
Conditions at: LFML (MARSEILLE/MARIGN, FR) observed 1200 UTC 17 June 2019
Temperature: 27.0°C (81°F)
Dewpoint: 16.0°C (61°F) [RH = 51%]
Pressure (altimeter): 29.97 inches Hg (1015.0 mb)
Winds: from the W (270 degrees) at 7 MPH (6 knots; 3.1 m/s)
Visibility: 6 or more miles (10+ km)
Ceiling: ceiling and visibility are OK
Clouds: unknown
Weather: no significant weather observed at this time

METAR text: LFML 171130Z AUTO 28007KT CAVOK 26/16 Q1015 NOSIG
Conditions at: LFML (MARSEILLE/MARIGN, FR) observed 1130 UTC 17 June 2019
Temperature: 26.0°C (79°F)
Dewpoint: 16.0°C (61°F) [RH = 54%]
Pressure (altimeter): 29.97 inches Hg (1015.0 mb)
Winds: from the W (280 degrees) at 8 MPH (7 knots; 3.6 m/s)
Visibility: 6 or more miles (10+ km)
Ceiling: ceiling and visibility are OK
Clouds: unknown
Weather: no significant weather observed at this time

Forecast for: LFML (MARSEILLE/MARIGN, FR)
Text: TAF LFML 170800Z 1709/1815 VRB05KT CAVOK TX29/1711Z TN17/1802Z
Forecast period: 0900 UTC 17 June 2019 to 1500 UTC 18 June 2019
Forecast type: FROM: standard forecast or significant change
Winds: variable direction winds at 6 MPH (5 knots; 2.6 m/s)
Visibility: 6 or more miles 10+ km)
Ceiling: unknown
Clouds: missing
Weather: no significant weather forecast for this period

 AIRPORT MAP

 RUNWAY INFORMATION

 AIRPORT FREQUENCIES
Type APP Name APP/RADAR Frequency 120.2 MHZ
Type ATIS Name ATIS Frequency 125.35 MHZ
Type GND Name GND Frequency 121.9 MHZ
Type INFO Name INFO Frequency 118.85 MHZ
Type PFLT Name PERFLIGHT Frequency 121.725 MHZ
Type TWR Name TWR Frequency 118.375 MHZ

 AIRPORT NEAR NAVIGATION AIDS
Type VOR-DME Name Marseille/Provence Frequency 108800 KHZ



2018 Air Astana Virtual Airline